sensor_id;sensor_type;location;lat;lon;timestamp;temperature;humidity
46976;DHT22;32724;51.094;6.996;2023-07-02T00:02:24;16.80;99.90
46976;DHT22;32724;51.094;6.996;2023-07-02T00:04:50;16.80;99.90
46976;DHT22;32724;51.094;6.996;2023-07-02T00:07:15;16.80;99.90
46976;DHT22;32724;51.094;6.996;2023-07-02T00:09:41;16.80;99.90
46976;DHT22;32724;51.094;6.996;2023-07-02T00:12:06;16.70;99.90
46976;DHT22;32724;51.094;6.996;2023-07-02T00:14:32;16.80;99.90
46976;DHT22;32724;51.094;6.996;2023-07-02T00:16:58;16.70;99.90
46976;DHT22;32724;51.094;6.996;2023-07-02T00:19:23;16.70;99.90
46976;DHT22;32724;51.094;6.996;2023-07-02T00:21:48;16.70;99.90
46976;DHT22;32724;51.094;6.996;2023-07-02T00:24:14;16.70;99.90
46976;DHT22;32724;51.094;6.996;2023-07-02T00:26:41;16.70;99.90
46976;DHT22;32724;51.094;6.996;2023-07-02T00:29:06;16.70;99.90
46976;DHT22;32724;51.094;6.996;2023-07-02T00:31:33;16.60;99.90
46976;DHT22;32724;51.094;6.996;2023-07-02T00:33:59;16.60;99.90
46976;DHT22;32724;51.094;6.996;2023-07-02T00:36:26;16.60;99.90
46976;DHT22;32724;51.094;6.996;2023-07-02T00:38:51;16.60;99.90
46976;DHT22;32724;51.094;6.996;2023-07-02T00:41:17;16.60;99.90
46976;DHT22;32724;51.094;6.996;2023-07-02T00:43:43;16.60;99.90
46976;DHT22;32724;51.094;6.996;2023-07-02T00:48:46;16.60;99.90
46976;DHT22;32724;51.094;6.996;2023-07-02T00:51:12;16.60;99.90
46976;DHT22;32724;51.094;6.996;2023-07-02T00:53:38;16.60;99.90
46976;DHT22;32724;51.094;6.996;2023-07-02T00:56:04;16.60;99.90
46976;DHT22;32724;51.094;6.996;2023-07-02T00:58:30;16.60;99.90
46976;DHT22;32724;51.094;6.996;2023-07-02T01:00:56;16.60;99.90
46976;DHT22;32724;51.094;6.996;2023-07-02T01:03:22;16.60;99.90
46976;DHT22;32724;51.094;6.996;2023-07-02T01:05:47;16.60;99.90
46976;DHT22;32724;51.094;6.996;2023-07-02T01:08:13;16.60;99.90
46976;DHT22;32724;51.094;6.996;2023-07-02T01:10:39;16.60;99.90
46976;DHT22;32724;51.094;6.996;2023-07-02T01:13:07;16.60;99.90
46976;DHT22;32724;51.094;6.996;2023-07-02T01:15:33;16.60;99.90
46976;DHT22;32724;51.094;6.996;2023-07-02T01:17:59;16.60;99.90
46976;DHT22;32724;51.094;6.996;2023-07-02T01:20:25;16.60;99.90
46976;DHT22;32724;51.094;6.996;2023-07-02T01:22:52;16.60;99.90
46976;DHT22;32724;51.094;6.996;2023-07-02T01:25:18;16.50;99.90
46976;DHT22;32724;51.094;6.996;2023-07-02T01:27:43;16.50;99.90
46976;DHT22;32724;51.094;6.996;2023-07-02T01:30:09;16.50;99.90
46976;DHT22;32724;51.094;6.996;2023-07-02T01:32:35;16.50;99.90
46976;DHT22;32724;51.094;6.996;2023-07-02T01:35:01;16.50;99.90
46976;DHT22;32724;51.094;6.996;2023-07-02T01:37:26;16.50;99.90
46976;DHT22;32724;51.094;6.996;2023-07-02T01:39:52;16.50;99.90
46976;DHT22;32724;51.094;6.996;2023-07-02T01:42:18;16.50;99.90
46976;DHT22;32724;51.094;6.996;2023-07-02T01:44:44;16.40;99.90
46976;DHT22;32724;51.094;6.996;2023-07-02T01:47:10;16.40;99.90
46976;DHT22;32724;51.094;6.996;2023-07-02T01:49:35;16.40;99.90
46976;DHT22;32724;51.094;6.996;2023-07-02T01:52:04;16.40;99.90
46976;DHT22;32724;51.094;6.996;2023-07-02T01:54:30;16.40;99.90
46976;DHT22;32724;51.094;6.996;2023-07-02T01:56:57;16.40;99.90
46976;DHT22;32724;51.094;6.996;2023-07-02T01:59:22;16.40;99.90
46976;DHT22;32724;51.094;6.996;2023-07-02T02:01:48;16.30;99.90
46976;DHT22;32724;51.094;6.996;2023-07-02T02:04:13;16.30;99.90
46976;DHT22;32724;51.094;6.996;2023-07-02T02:06:39;16.30;99.90
46976;DHT22;32724;51.094;6.996;2023-07-02T02:09:05;16.30;99.90
46976;DHT22;32724;51.094;6.996;2023-07-02T02:11:31;16.30;99.90
46976;DHT22;32724;51.094;6.996;2023-07-02T02:13:57;16.20;99.90
46976;DHT22;32724;51.094;6.996;2023-07-02T02:16:22;16.20;99.90
46976;DHT22;32724;51.094;6.996;2023-07-02T02:18:48;16.10;99.90
46976;DHT22;32724;51.094;6.996;2023-07-02T02:21:17;16.00;99.90
46976;DHT22;32724;51.094;6.996;2023-07-02T02:23:43;15.90;99.90
46976;DHT22;32724;51.094;6.996;2023-07-02T02:26:08;15.80;99.90
46976;DHT22;32724;51.094;6.996;2023-07-02T02:28:33;15.70;99.90
46976;DHT22;32724;51.094;6.996;2023-07-02T02:30:59;15.70;99.90
46976;DHT22;32724;51.094;6.996;2023-07-02T02:33:25;15.60;99.90
46976;DHT22;32724;51.094;6.996;2023-07-02T02:35:50;15.60;99.90
46976;DHT22;32724;51.094;6.996;2023-07-02T02:38:16;15.60;99.90
46976;DHT22;32724;51.094;6.996;2023-07-02T02:40:41;15.60;99.90
46976;DHT22;32724;51.094;6.996;2023-07-02T02:43:07;15.60;99.90
46976;DHT22;32724;51.094;6.996;2023-07-02T02:45:32;15.60;99.90
46976;DHT22;32724;51.094;6.996;2023-07-02T02:47:57;15.60;99.90
46976;DHT22;32724;51.094;6.996;2023-07-02T02:50:23;15.50;99.90
46976;DHT22;32724;51.094;6.996;2023-07-02T02:52:48;15.50;99.90
46976;DHT22;32724;51.094;6.996;2023-07-02T02:55:14;15.60;99.90
46976;DHT22;32724;51.094;6.996;2023-07-02T02:57:39;15.50;99.90
46976;DHT22;32724;51.094;6.996;2023-07-02T03:00:05;15.60;99.90
46976;DHT22;32724;51.094;6.996;2023-07-02T03:02:32;15.60;99.90
46976;DHT22;32724;51.094;6.996;2023-07-02T03:04:57;15.60;99.90
46976;DHT22;32724;51.094;6.996;2023-07-02T03:07:28;15.60;99.90
46976;DHT22;32724;51.094;6.996;2023-07-02T03:09:53;15.60;99.90
46976;DHT22;32724;51.094;6.996;2023-07-02T03:12:19;15.60;99.90
46976;DHT22;32724;51.094;6.996;2023-07-02T03:14:44;15.70;99.90
46976;DHT22;32724;51.094;6.996;2023-07-02T03:17:10;15.70;99.90
46976;DHT22;32724;51.094;6.996;2023-07-02T03:19:35;15.70;99.90
46976;DHT22;32724;51.094;6.996;2023-07-02T03:22:01;15.80;99.90
46976;DHT22;32724;51.094;6.996;2023-07-02T03:24:26;15.80;99.90
46976;DHT22;32724;51.094;6.996;2023-07-02T03:26:52;15.90;99.90
46976;DHT22;32724;51.094;6.996;2023-07-02T03:29:17;15.80;99.90
46976;DHT22;32724;51.094;6.996;2023-07-02T03:31:45;15.80;99.90
46976;DHT22;32724;51.094;6.996;2023-07-02T03:34:10;15.90;99.90
46976;DHT22;32724;51.094;6.996;2023-07-02T03:36:36;15.90;99.90
46976;DHT22;32724;51.094;6.996;2023-07-02T03:39:02;15.90;99.90
46976;DHT22;32724;51.094;6.996;2023-07-02T03:41:28;15.90;99.90
46976;DHT22;32724;51.094;6.996;2023-07-02T03:43:54;15.90;99.90
46976;DHT22;32724;51.094;6.996;2023-07-02T03:46:19;15.90;99.90
46976;DHT22;32724;51.094;6.996;2023-07-02T03:48:45;15.90;99.90
46976;DHT22;32724;51.094;6.996;2023-07-02T03:51:10;16.00;99.90
46976;DHT22;32724;51.094;6.996;2023-07-02T03:53:38;16.00;99.90
46976;DHT22;32724;51.094;6.996;2023-07-02T03:56:03;16.00;99.90
46976;DHT22;32724;51.094;6.996;2023-07-02T03:58:29;16.00;99.90
46976;DHT22;32724;51.094;6.996;2023-07-02T04:00:54;16.00;99.90
46976;DHT22;32724;51.094;6.996;2023-07-02T04:03:19;15.90;99.90
46976;DHT22;32724;51.094;6.996;2023-07-02T04:05:45;16.00;99.90
46976;DHT22;32724;51.094;6.996;2023-07-02T04:08:10;16.00;99.90
46976;DHT22;32724;51.094;6.996;2023-07-02T04:10:36;16.00;99.90
46976;DHT22;32724;51.094;6.996;2023-07-02T04:13:03;16.00;99.90
46976;DHT22;32724;51.094;6.996;2023-07-02T04:15:29;16.00;99.90
46976;DHT22;32724;51.094;6.996;2023-07-02T04:17:54;16.00;99.90
46976;DHT22;32724;51.094;6.996;2023-07-02T04:20:20;16.00;99.90
46976;DHT22;32724;51.094;6.996;2023-07-02T04:22:45;16.00;99.90
46976;DHT22;32724;51.094;6.996;2023-07-02T04:25:12;16.10;99.90
46976;DHT22;32724;51.094;6.996;2023-07-02T04:27:43;16.10;99.90
46976;DHT22;32724;51.094;6.996;2023-07-02T04:30:12;16.10;99.90
46976;DHT22;32724;51.094;6.996;2023-07-02T04:32:39;16.20;99.90
46976;DHT22;32724;51.094;6.996;2023-07-02T04:35:05;16.20;99.90
46976;DHT22;32724;51.094;6.996;2023-07-02T04:37:31;16.20;99.90
46976;DHT22;32724;51.094;6.996;2023-07-02T04:39:56;16.30;99.90
46976;DHT22;32724;51.094;6.996;2023-07-02T04:42:22;16.30;99.90
46976;DHT22;32724;51.094;6.996;2023-07-02T04:44:53;16.40;99.90
46976;DHT22;32724;51.094;6.996;2023-07-02T04:47:19;16.40;99.90
46976;DHT22;32724;51.094;6.996;2023-07-02T04:49:44;16.50;99.90
46976;DHT22;32724;51.094;6.996;2023-07-02T04:52:10;16.50;99.90
46976;DHT22;32724;51.094;6.996;2023-07-02T04:54:35;16.60;99.90
46976;DHT22;32724;51.094;6.996;2023-07-02T04:57:01;16.70;99.90
46976;DHT22;32724;51.094;6.996;2023-07-02T04:59:26;16.70;99.90
46976;DHT22;32724;51.094;6.996;2023-07-02T05:01:52;16.60;99.90
46976;DHT22;32724;51.094;6.996;2023-07-02T05:04:17;16.60;99.90
46976;DHT22;32724;51.094;6.996;2023-07-02T05:06:43;16.60;99.90
46976;DHT22;32724;51.094;6.996;2023-07-02T05:09:08;16.60;99.90
46976;DHT22;32724;51.094;6.996;2023-07-02T05:11:34;16.50;99.90
46976;DHT22;32724;51.094;6.996;2023-07-02T05:13:59;16.60;99.90
46976;DHT22;32724;51.094;6.996;2023-07-02T05:16:24;16.70;99.90
46976;DHT22;32724;51.094;6.996;2023-07-02T05:18:50;16.80;99.90
46976;DHT22;32724;51.094;6.996;2023-07-02T05:21:18;16.90;99.90
46976;DHT22;32724;51.094;6.996;2023-07-02T05:23:44;17.00;99.90
46976;DHT22;32724;51.094;6.996;2023-07-02T05:26:10;17.20;99.90
46976;DHT22;32724;51.094;6.996;2023-07-02T05:28:35;17.30;99.90
46976;DHT22;32724;51.094;6.996;2023-07-02T05:31:01;17.40;99.90
46976;DHT22;32724;51.094;6.996;2023-07-02T05:33:26;17.50;99.90
46976;DHT22;32724;51.094;6.996;2023-07-02T05:35:52;17.50;99.90
46976;DHT22;32724;51.094;6.996;2023-07-02T05:38:18;17.60;99.90
46976;DHT22;32724;51.094;6.996;2023-07-02T05:40:44;17.60;99.90
46976;DHT22;32724;51.094;6.996;2023-07-02T05:43:09;17.60;99.90
46976;DHT22;32724;51.094;6.996;2023-07-02T05:45:35;17.60;99.90
46976;DHT22;32724;51.094;6.996;2023-07-02T05:48:00;17.70;99.90
46976;DHT22;32724;51.094;6.996;2023-07-02T05:50:26;17.70;99.90
46976;DHT22;32724;51.094;6.996;2023-07-02T05:52:51;17.70;99.90
46976;DHT22;32724;51.094;6.996;2023-07-02T05:55:17;17.70;99.90
46976;DHT22;32724;51.094;6.996;2023-07-02T05:57:42;17.70;99.90
46976;DHT22;32724;51.094;6.996;2023-07-02T06:00:08;17.60;99.90
46976;DHT22;32724;51.094;6.996;2023-07-02T06:02:33;17.70;99.90
46976;DHT22;32724;51.094;6.996;2023-07-02T06:04:59;17.70;99.90
46976;DHT22;32724;51.094;6.996;2023-07-02T06:07:24;17.70;99.90
46976;DHT22;32724;51.094;6.996;2023-07-02T06:09:50;17.80;99.90
46976;DHT22;32724;51.094;6.996;2023-07-02T06:12:16;17.80;99.90
46976;DHT22;32724;51.094;6.996;2023-07-02T06:14:41;17.80;99.90
46976;DHT22;32724;51.094;6.996;2023-07-02T06:17:07;17.80;99.90
46976;DHT22;32724;51.094;6.996;2023-07-02T06:19:32;17.90;99.90
46976;DHT22;32724;51.094;6.996;2023-07-02T06:21:58;18.00;99.90
46976;DHT22;32724;51.094;6.996;2023-07-02T06:24:24;18.00;99.90
46976;DHT22;32724;51.094;6.996;2023-07-02T06:26:49;18.10;99.90
46976;DHT22;32724;51.094;6.996;2023-07-02T06:29:15;18.20;99.90
46976;DHT22;32724;51.094;6.996;2023-07-02T06:31:40;18.20;99.90
46976;DHT22;32724;51.094;6.996;2023-07-02T06:34:05;18.20;99.90
46976;DHT22;32724;51.094;6.996;2023-07-02T06:36:31;18.30;99.90
46976;DHT22;32724;51.094;6.996;2023-07-02T06:38:57;18.30;99.90
46976;DHT22;32724;51.094;6.996;2023-07-02T06:41:22;18.30;99.90
46976;DHT22;32724;51.094;6.996;2023-07-02T06:43:48;18.40;99.90
46976;DHT22;32724;51.094;6.996;2023-07-02T06:46:13;18.40;99.90
46976;DHT22;32724;51.094;6.996;2023-07-02T06:48:39;18.50;99.90
46976;DHT22;32724;51.094;6.996;2023-07-02T06:51:04;18.60;99.90
46976;DHT22;32724;51.094;6.996;2023-07-02T06:53:30;18.90;99.90
46976;DHT22;32724;51.094;6.996;2023-07-02T06:55:55;19.00;99.90
46976;DHT22;32724;51.094;6.996;2023-07-02T06:58:21;19.20;99.90
46976;DHT22;32724;51.094;6.996;2023-07-02T07:00:46;19.20;99.90
46976;DHT22;32724;51.094;6.996;2023-07-02T07:03:12;19.10;99.90
46976;DHT22;32724;51.094;6.996;2023-07-02T07:05:37;19.20;99.90
46976;DHT22;32724;51.094;6.996;2023-07-02T07:08:03;19.10;99.90
46976;DHT22;32724;51.094;6.996;2023-07-02T07:10:28;19.20;99.90
46976;DHT22;32724;51.094;6.996;2023-07-02T07:12:59;19.50;99.90
46976;DHT22;32724;51.094;6.996;2023-07-02T07:15:24;19.90;99.90
46976;DHT22;32724;51.094;6.996;2023-07-02T07:17:50;20.20;99.90
46976;DHT22;32724;51.094;6.996;2023-07-02T07:20:15;20.70;99.90
46976;DHT22;32724;51.094;6.996;2023-07-02T07:22:41;21.10;99.90
46976;DHT22;32724;51.094;6.996;2023-07-02T07:25:07;21.20;99.90
46976;DHT22;32724;51.094;6.996;2023-07-02T07:27:32;20.90;99.90
46976;DHT22;32724;51.094;6.996;2023-07-02T07:29:58;20.50;99.90
46976;DHT22;32724;51.094;6.996;2023-07-02T07:32:23;20.60;99.90
46976;DHT22;32724;51.094;6.996;2023-07-02T07:34:49;20.60;99.90
46976;DHT22;32724;51.094;6.996;2023-07-02T07:37:14;20.90;99.90
46976;DHT22;32724;51.094;6.996;2023-07-02T07:39:40;21.20;99.90
46976;DHT22;32724;51.094;6.996;2023-07-02T07:42:05;21.50;99.90
46976;DHT22;32724;51.094;6.996;2023-07-02T07:44:31;21.40;99.90
46976;DHT22;32724;51.094;6.996;2023-07-02T07:46:56;21.30;99.90
46976;DHT22;32724;51.094;6.996;2023-07-02T07:49:22;21.30;99.90
46976;DHT22;32724;51.094;6.996;2023-07-02T07:51:48;21.40;99.90
46976;DHT22;32724;51.094;6.996;2023-07-02T07:54:14;21.00;99.90
46976;DHT22;32724;51.094;6.996;2023-07-02T07:56:39;20.90;99.90
46976;DHT22;32724;51.094;6.996;2023-07-02T07:59:05;20.80;99.90
46976;DHT22;32724;51.094;6.996;2023-07-02T08:01:30;20.70;99.90
46976;DHT22;32724;51.094;6.996;2023-07-02T08:03:56;20.60;99.90
46976;DHT22;32724;51.094;6.996;2023-07-02T08:06:22;20.70;99.90
46976;DHT22;32724;51.094;6.996;2023-07-02T08:08:47;20.80;99.90
46976;DHT22;32724;51.094;6.996;2023-07-02T08:11:13;20.70;99.90
46976;DHT22;32724;51.094;6.996;2023-07-02T08:13:38;20.20;99.90
46976;DHT22;32724;51.094;6.996;2023-07-02T08:16:04;19.90;99.90
46976;DHT22;32724;51.094;6.996;2023-07-02T08:18:29;19.90;99.90
46976;DHT22;32724;51.094;6.996;2023-07-02T08:20:55;19.90;99.90
46976;DHT22;32724;51.094;6.996;2023-07-02T08:23:20;20.00;99.90
46976;DHT22;32724;51.094;6.996;2023-07-02T08:25:46;19.90;99.90
46976;DHT22;32724;51.094;6.996;2023-07-02T08:28:11;19.70;99.90
46976;DHT22;32724;51.094;6.996;2023-07-02T08:30:37;19.70;99.90
46976;DHT22;32724;51.094;6.996;2023-07-02T08:33:02;19.90;99.90
46976;DHT22;32724;51.094;6.996;2023-07-02T08:35:28;20.00;99.90
46976;DHT22;32724;51.094;6.996;2023-07-02T08:37:53;20.20;99.90
46976;DHT22;32724;51.094;6.996;2023-07-02T08:40:19;20.60;99.90
46976;DHT22;32724;51.094;6.996;2023-07-02T08:42:45;21.10;99.90
46976;DHT22;32724;51.094;6.996;2023-07-02T08:45:12;21.50;99.90
46976;DHT22;32724;51.094;6.996;2023-07-02T08:47:38;21.50;99.90
46976;DHT22;32724;51.094;6.996;2023-07-02T08:50:04;21.50;99.90
46976;DHT22;32724;51.094;6.996;2023-07-02T08:52:30;21.50;99.90
46976;DHT22;32724;51.094;6.996;2023-07-02T08:54:55;21.70;99.90
46976;DHT22;32724;51.094;6.996;2023-07-02T08:57:21;21.70;99.90
46976;DHT22;32724;51.094;6.996;2023-07-02T08:59:46;21.70;99.90
46976;DHT22;32724;51.094;6.996;2023-07-02T09:02:14;21.90;99.90
46976;DHT22;32724;51.094;6.996;2023-07-02T09:04:39;21.70;99.90
46976;DHT22;32724;51.094;6.996;2023-07-02T09:07:08;21.40;99.90
46976;DHT22;32724;51.094;6.996;2023-07-02T09:09:47;21.30;99.90
46976;DHT22;32724;51.094;6.996;2023-07-02T09:12:25;21.10;99.90
46976;DHT22;32724;51.094;6.996;2023-07-02T09:14:58;21.50;99.90
46976;DHT22;32724;51.094;6.996;2023-07-02T09:17:28;22.00;99.90
46976;DHT22;32724;51.094;6.996;2023-07-02T09:19:54;22.20;99.90
46976;DHT22;32724;51.094;6.996;2023-07-02T09:22:20;21.80;99.40
46976;DHT22;32724;51.094;6.996;2023-07-02T09:24:52;21.70;99.90
46976;DHT22;32724;51.094;6.996;2023-07-02T09:27:43;21.00;99.90
46976;DHT22;32724;51.094;6.996;2023-07-02T09:30:09;20.90;99.90
46976;DHT22;32724;51.094;6.996;2023-07-02T09:32:35;20.80;99.90
46976;DHT22;32724;51.094;6.996;2023-07-02T09:35:01;20.70;99.90
46976;DHT22;32724;51.094;6.996;2023-07-02T09:37:26;20.70;99.90
46976;DHT22;32724;51.094;6.996;2023-07-02T09:39:52;20.70;99.90
46976;DHT22;32724;51.094;6.996;2023-07-02T09:42:19;20.70;99.90
46976;DHT22;32724;51.094;6.996;2023-07-02T09:44:45;20.70;99.90
46976;DHT22;32724;51.094;6.996;2023-07-02T09:47:12;20.90;99.90
46976;DHT22;32724;51.094;6.996;2023-07-02T09:49:41;21.00;99.90
46976;DHT22;32724;51.094;6.996;2023-07-02T09:52:09;21.20;99.90
46976;DHT22;32724;51.094;6.996;2023-07-02T09:54:34;21.50;99.90
46976;DHT22;32724;51.094;6.996;2023-07-02T09:57:00;21.80;99.90
46976;DHT22;32724;51.094;6.996;2023-07-02T09:59:26;22.00;99.30
46976;DHT22;32724;51.094;6.996;2023-07-02T10:01:51;21.90;99.60
46976;DHT22;32724;51.094;6.996;2023-07-02T10:04:17;21.80;99.40
46976;DHT22;32724;51.094;6.996;2023-07-02T10:06:47;21.60;99.90
46976;DHT22;32724;51.094;6.996;2023-07-02T10:09:12;21.10;99.90
46976;DHT22;32724;51.094;6.996;2023-07-02T10:11:38;20.70;99.90
46976;DHT22;32724;51.094;6.996;2023-07-02T10:14:03;20.40;99.90
46976;DHT22;32724;51.094;6.996;2023-07-02T10:16:29;20.10;99.90
46976;DHT22;32724;51.094;6.996;2023-07-02T10:19:12;20.30;99.90
46976;DHT22;32724;51.094;6.996;2023-07-02T10:21:38;20.60;99.90
46976;DHT22;32724;51.094;6.996;2023-07-02T10:24:13;20.90;99.90
46976;DHT22;32724;51.094;6.996;2023-07-02T10:26:51;21.30;99.90
46976;DHT22;32724;51.094;6.996;2023-07-02T10:29:20;21.70;99.90
46976;DHT22;32724;51.094;6.996;2023-07-02T10:31:50;22.00;99.90
46976;DHT22;32724;51.094;6.996;2023-07-02T10:34:15;22.00;99.80
46976;DHT22;32724;51.094;6.996;2023-07-02T10:36:41;22.20;99.60
46976;DHT22;32724;51.094;6.996;2023-07-02T10:39:06;22.30;99.50
46976;DHT22;32724;51.094;6.996;2023-07-02T10:41:34;22.30;99.70
46976;DHT22;32724;51.094;6.996;2023-07-02T10:44:06;22.10;99.60
46976;DHT22;32724;51.094;6.996;2023-07-02T10:46:31;22.00;99.20
46976;DHT22;32724;51.094;6.996;2023-07-02T10:48:57;22.00;98.60
46976;DHT22;32724;51.094;6.996;2023-07-02T10:51:23;21.70;96.40
46976;DHT22;32724;51.094;6.996;2023-07-02T10:54:02;21.40;97.30
46976;DHT22;32724;51.094;6.996;2023-07-02T10:56:30;21.10;98.10
46976;DHT22;32724;51.094;6.996;2023-07-02T10:58:56;21.30;99.30
46976;DHT22;32724;51.094;6.996;2023-07-02T11:01:24;21.40;96.50
46976;DHT22;32724;51.094;6.996;2023-07-02T11:03:56;21.50;97.10
46976;DHT22;32724;51.094;6.996;2023-07-02T11:06:22;21.60;98.00
46976;DHT22;32724;51.094;6.996;2023-07-02T11:08:48;21.40;98.40
46976;DHT22;32724;51.094;6.996;2023-07-02T11:11:13;21.20;99.00
46976;DHT22;32724;51.094;6.996;2023-07-02T11:13:45;20.90;99.40
46976;DHT22;32724;51.094;6.996;2023-07-02T11:16:21;20.50;99.90
46976;DHT22;32724;51.094;6.996;2023-07-02T11:18:48;20.40;99.90
46976;DHT22;32724;51.094;6.996;2023-07-02T11:21:13;20.40;99.90
46976;DHT22;32724;51.094;6.996;2023-07-02T11:23:39;20.40;99.90
46976;DHT22;32724;51.094;6.996;2023-07-02T11:26:04;20.40;99.80
46976;DHT22;32724;51.094;6.996;2023-07-02T11:28:31;20.60;99.90
46976;DHT22;32724;51.094;6.996;2023-07-02T11:30:57;21.10;99.90
46976;DHT22;32724;51.094;6.996;2023-07-02T11:33:35;21.40;98.30
46976;DHT22;32724;51.094;6.996;2023-07-02T11:36:01;21.40;97.70
46976;DHT22;32724;51.094;6.996;2023-07-02T11:38:27;21.30;98.20
46976;DHT22;32724;51.094;6.996;2023-07-02T11:40:52;21.20;98.60
46976;DHT22;32724;51.094;6.996;2023-07-02T11:43:18;20.80;98.80
46976;DHT22;32724;51.094;6.996;2023-07-02T11:45:44;20.20;99.20
46976;DHT22;32724;51.094;6.996;2023-07-02T11:48:09;20.00;99.90
46976;DHT22;32724;51.094;6.996;2023-07-02T11:50:35;19.90;99.90
46976;DHT22;32724;51.094;6.996;2023-07-02T11:53:00;19.90;99.90
46976;DHT22;32724;51.094;6.996;2023-07-02T11:55:26;20.10;99.90
46976;DHT22;32724;51.094;6.996;2023-07-02T11:57:51;20.20;99.90
46976;DHT22;32724;51.094;6.996;2023-07-02T12:00:17;20.40;99.00
46976;DHT22;32724;51.094;6.996;2023-07-02T12:02:42;20.90;99.60
46976;DHT22;32724;51.094;6.996;2023-07-02T12:05:08;21.50;98.90
46976;DHT22;32724;51.094;6.996;2023-07-02T12:07:34;21.80;93.60
46976;DHT22;32724;51.094;6.996;2023-07-02T12:09:59;21.80;92.00
46976;DHT22;32724;51.094;6.996;2023-07-02T12:12:24;21.70;92.70
46976;DHT22;32724;51.094;6.996;2023-07-02T12:14:50;21.60;91.40
46976;DHT22;32724;51.094;6.996;2023-07-02T12:17:15;21.60;92.70
46976;DHT22;32724;51.094;6.996;2023-07-02T12:19:41;21.30;92.20
46976;DHT22;32724;51.094;6.996;2023-07-02T12:22:06;21.20;93.90
46976;DHT22;32724;51.094;6.996;2023-07-02T12:24:32;21.30;92.70
46976;DHT22;32724;51.094;6.996;2023-07-02T12:26:58;21.50;92.90
46976;DHT22;32724;51.094;6.996;2023-07-02T12:29:23;21.70;93.70
46976;DHT22;32724;51.094;6.996;2023-07-02T12:31:49;22.20;93.30
46976;DHT22;32724;51.094;6.996;2023-07-02T12:34:14;22.40;91.40
46976;DHT22;32724;51.094;6.996;2023-07-02T12:36:40;22.20;92.40
46976;DHT22;32724;51.094;6.996;2023-07-02T12:39:05;22.20;91.90
46976;DHT22;32724;51.094;6.996;2023-07-02T12:41:31;22.30;91.30
46976;DHT22;32724;51.094;6.996;2023-07-02T12:43:56;22.20;90.70
46976;DHT22;32724;51.094;6.996;2023-07-02T12:46:22;22.20;91.10
46976;DHT22;32724;51.094;6.996;2023-07-02T12:48:47;22.30;91.20
46976;DHT22;32724;51.094;6.996;2023-07-02T12:51:13;22.60;90.90
46976;DHT22;32724;51.094;6.996;2023-07-02T12:53:40;22.60;87.50
46976;DHT22;32724;51.094;6.996;2023-07-02T12:56:05;22.70;85.80
46976;DHT22;32724;51.094;6.996;2023-07-02T12:58:31;22.80;87.10
46976;DHT22;32724;51.094;6.996;2023-07-02T13:00:56;22.90;85.00
46976;DHT22;32724;51.094;6.996;2023-07-02T13:03:22;23.00;82.90
46976;DHT22;32724;51.094;6.996;2023-07-02T13:05:48;23.00;83.70
46976;DHT22;32724;51.094;6.996;2023-07-02T13:08:14;23.00;81.20
46976;DHT22;32724;51.094;6.996;2023-07-02T13:10:39;23.30;83.70
46976;DHT22;32724;51.094;6.996;2023-07-02T13:13:05;23.70;81.30
46976;DHT22;32724;51.094;6.996;2023-07-02T13:15:31;24.00;81.20
46976;DHT22;32724;51.094;6.996;2023-07-02T13:17:56;24.20;81.00
46976;DHT22;32724;51.094;6.996;2023-07-02T13:20:22;24.30;78.40
46976;DHT22;32724;51.094;6.996;2023-07-02T13:22:47;24.40;80.40
46976;DHT22;32724;51.094;6.996;2023-07-02T13:25:13;24.40;77.90
46976;DHT22;32724;51.094;6.996;2023-07-02T13:27:38;24.60;78.60
46976;DHT22;32724;51.094;6.996;2023-07-02T13:30:04;24.70;80.10
46976;DHT22;32724;51.094;6.996;2023-07-02T13:32:30;24.50;77.10
46976;DHT22;32724;51.094;6.996;2023-07-02T13:34:55;24.60;77.50
46976;DHT22;32724;51.094;6.996;2023-07-02T13:37:21;24.50;76.70
46976;DHT22;32724;51.094;6.996;2023-07-02T13:39:46;24.50;78.00
46976;DHT22;32724;51.094;6.996;2023-07-02T13:42:12;24.50;76.70
46976;DHT22;32724;51.094;6.996;2023-07-02T13:44:38;24.40;78.30
46976;DHT22;32724;51.094;6.996;2023-07-02T13:47:03;24.20;78.80
46976;DHT22;32724;51.094;6.996;2023-07-02T13:49:29;24.00;79.50
46976;DHT22;32724;51.094;6.996;2023-07-02T13:51:55;23.80;78.90
46976;DHT22;32724;51.094;6.996;2023-07-02T13:54:20;23.70;79.60
46976;DHT22;32724;51.094;6.996;2023-07-02T13:56:46;23.60;80.70
46976;DHT22;32724;51.094;6.996;2023-07-02T13:59:12;23.40;81.70
46976;DHT22;32724;51.094;6.996;2023-07-02T14:01:38;23.60;82.30
46976;DHT22;32724;51.094;6.996;2023-07-02T14:04:03;23.50;81.50
46976;DHT22;32724;51.094;6.996;2023-07-02T14:06:29;23.40;80.40
46976;DHT22;32724;51.094;6.996;2023-07-02T14:08:54;23.50;82.00
46976;DHT22;32724;51.094;6.996;2023-07-02T14:11:20;23.50;82.30
46976;DHT22;32724;51.094;6.996;2023-07-02T14:13:46;23.30;80.80
46976;DHT22;32724;51.094;6.996;2023-07-02T14:16:11;23.20;80.70
46976;DHT22;32724;51.094;6.996;2023-07-02T14:18:37;23.30;81.60
46976;DHT22;32724;51.094;6.996;2023-07-02T14:21:02;23.10;85.90
46976;DHT22;32724;51.094;6.996;2023-07-02T14:23:28;22.80;87.10
46976;DHT22;32724;51.094;6.996;2023-07-02T14:25:54;22.50;86.70
46976;DHT22;32724;51.094;6.996;2023-07-02T14:28:19;22.40;86.80
46976;DHT22;32724;51.094;6.996;2023-07-02T14:30:45;22.50;86.30
46976;DHT22;32724;51.094;6.996;2023-07-02T14:33:10;22.10;89.60
46976;DHT22;32724;51.094;6.996;2023-07-02T14:35:36;22.20;89.60
46976;DHT22;32724;51.094;6.996;2023-07-02T14:38:01;22.40;86.70
46976;DHT22;32724;51.094;6.996;2023-07-02T14:40:27;22.70;86.90
46976;DHT22;32724;51.094;6.996;2023-07-02T14:42:52;23.00;84.90
46976;DHT22;32724;51.094;6.996;2023-07-02T14:45:18;23.00;82.70
46976;DHT22;32724;51.094;6.996;2023-07-02T14:47:44;23.00;83.60
46976;DHT22;32724;51.094;6.996;2023-07-02T14:50:09;22.80;82.40
46976;DHT22;32724;51.094;6.996;2023-07-02T14:52:35;23.00;82.50
46976;DHT22;32724;51.094;6.996;2023-07-02T14:55:00;23.20;83.10
46976;DHT22;32724;51.094;6.996;2023-07-02T14:57:26;23.40;82.20
46976;DHT22;32724;51.094;6.996;2023-07-02T14:59:52;23.40;82.10
46976;DHT22;32724;51.094;6.996;2023-07-02T15:02:18;23.30;81.00
46976;DHT22;32724;51.094;6.996;2023-07-02T15:04:43;23.70;82.00
46976;DHT22;32724;51.094;6.996;2023-07-02T15:07:09;23.80;82.60
46976;DHT22;32724;51.094;6.996;2023-07-02T15:09:34;23.90;79.60
46976;DHT22;32724;51.094;6.996;2023-07-02T15:12:00;23.50;81.20
46976;DHT22;32724;51.094;6.996;2023-07-02T15:14:25;23.10;81.00
46976;DHT22;32724;51.094;6.996;2023-07-02T15:16:51;22.90;82.90
46976;DHT22;32724;51.094;6.996;2023-07-02T15:19:17;22.80;82.20
46976;DHT22;32724;51.094;6.996;2023-07-02T15:21:42;22.90;83.80
46976;DHT22;32724;51.094;6.996;2023-07-02T15:24:08;23.00;83.80
46976;DHT22;32724;51.094;6.996;2023-07-02T15:26:35;23.20;83.40